Santa Eulalia — EA8982 — position and weather

sailwx.info

Track history (hours):
 
Tides and Currents Weather Stations Pressure Air Temp Water Temp Dewpoint Dewpoint Depression Visibility Wind Speed Wind Dir Waves Ship Positions

Santa Eulalia

Last reported at 2018-Jun-19 12:56 UTC. Time now 2018-Jun-19 14:08 UTC.
Position N 38°56' E 001°30'.

Length 18 m.

Type: Passenger vessel. MMSI: 224005530.

Date/timePositionNaut miles runAvg speedWind from/ knotsBaromVisibWave heightAir tempDewpointWater temp
2018-Jun-19 12:56N 38°56' E 001°30'3 7.3
2018-Jun-19 12:28N 38°55' E 001°26'0 0.0
2018-Jun-19 11:23N 38°55' E 001°26'4 3.0
2018-Jun-19 09:58N 38°56' E 001°31'4 8.3
2018-Jun-19 09:27N 38°55' E 001°26'2 0.1
2018-Jun-18 15:49N 38°55' E 001°29'1 0.1
2018-Jun-18 09:44N 38°54' E 001°28'2 4.6
2018-Jun-18 09:24N 38°55' E 001°26'  
2018-Jun-14 15:01N 38°56' E 001°31'110.4
2018-Jun-14 14:55N 38°56' E 001°30'3 7.0
2018-Jun-14 14:28N 38°55' E 001°26'4 7.3
2018-Jun-14 13:55N 38°56' E 001°31'3 6.8
2018-Jun-14 13:29N 38°59' E 001°32'2 1.0
2018-Jun-14 11:47N 38°59' E 001°34'2 6.3
2018-Jun-14 11:30N 38°59' E 001°32'5 6.7
2018-Jun-14 10:49N 38°55' E 001°29'2 7.6
2018-Jun-14 10:30N 38°55' E 001°26'4 7.1
2018-Jun-14 09:57N 38°56' E 001°31'3 6.2
2018-Jun-14 09:28N 38°59' E 001°32'2 3.2
2018-Jun-14 08:52N 38°59' E 001°35'2 4.8
2018-Jun-14 08:28N 38°59' E 001°32'2 2.7
2018-Jun-14 07:53N 38°57' E 001°32'2 3.9
2018-Jun-14 07:30N 38°59' E 001°32'1 1.1
2018-Jun-14 07:00N 38°59' E 001°33'0 0.0
2018-Jun-13 17:13N 38°59' E 001°32'0 1.0
2018-Jun-13 17:00N 38°59' E 001°32'0 0.1
2018-Jun-13 16:29N 38°59' E 001°32'2 2.6
2018-Jun-13 15:46N 38°59' E 001°35'2 6.1
2018-Jun-13 15:28N 38°59' E 001°32'5 7.9
2018-Jun-13 14:47N 38°55' E 001°28'3 3.7
2018-Jun-13 13:50N 38°57' E 001°32'2 7.0
2018-Jun-13 13:30N 38°59' E 001°32'2 1.2
2018-Jun-13 11:44N 38°59' E 001°35'2 6.9
2018-Jun-13 11:26N 38°59' E 001°32'6 8.3
2018-Jun-13 10:41N 38°54' E 001°27'0 1.8
2018-Jun-13 10:25N 38°55' E 001°26'5 9.5
2018-Jun-13 09:55N 38°57' E 001°32'2 5.2
2018-Jun-13 09:28N 38°59' E 001°32'2 2.4
2018-Jun-13 08:42N 38°59' E 001°35'2 7.6
2018-Jun-13 08:28N 38°59' E 001°32'2 3.6
2018-Jun-13 07:56N 38°57' E 001°31'2 4.3
2018-Jun-13 07:30N 38°59' E 001°32'1 2.6
2018-Jun-13 06:59N 38°60' E 001°34'1 0.1
2018-Jun-12 18:11N 38°59' E 001°32'2 1.3
2018-Jun-12 16:54N 38°59' E 001°35'2 4.8
2018-Jun-12 16:30N 38°59' E 001°32'2 2.7
2018-Jun-12 15:48N 38°59' E 001°35'2 5.5
2018-Jun-12 15:27N 38°59' E 001°32'2 1.5
2018-Jun-12 13:50N 38°57' E 001°32'2 7.0
2018-Jun-12 13:30N 38°59' E 001°32'2 1.0
2018-Jun-12 11:48N 38°59' E 001°34'2 6.1
2018-Jun-12 11:30N 38°58' E 001°32'1 0.9
2018-Jun-12 09:52N 38°57' E 001°32'2 5.5
2018-Jun-12 09:29N 38°59' E 001°32'1 1.8
2018-Jun-12 08:47N 38°59' E 001°34'1 4.3
2018-Jun-12 08:29N 38°59' E 001°32'2 1.2
2018-Jun-12 06:52N 38°59' E 001°35'2 0.1
2018-Jun-11 17:21N 38°59' E 001°32'2 4.6
2018-Jun-11 17:00N 38°57' E 001°32'2 3.2
2018-Jun-11 16:30N 38°59' E 001°33'2 2.1
2018-Jun-11 15:45N 38°59' E 001°35'2 7.8
2018-Jun-11 15:30N 38°59' E 001°32'4 6.4
2018-Jun-11 14:57N 38°56' E 001°31'4 8.1
2018-Jun-11 14:30N 38°55' E 001°26'5 7.3
2018-Jun-11 13:50N 38°57' E 001°32'2 5.9
2018-Jun-11 13:28N 38°59' E 001°32'2 1.3
2018-Jun-11 11:53N 38°59' E 001°35'2 5.5
2018-Jun-11 11:30N 38°59' E 001°32'5 3.8
2018-Jun-11 10:09N 38°55' E 001°28'310.1
2018-Jun-11 09:49N 38°57' E 001°31'2 5.1
2018-Jun-11 09:27N 38°59' E 001°32'2 3.0
2018-Jun-11 08:50N 38°59' E 001°35'2 4.9
2018-Jun-11 08:28N 38°59' E 001°32'2 2.5
2018-Jun-11 07:47N 38°57' E 001°32'2 5.8
2018-Jun-11 07:30N 38°59' E 001°32'0 0.4
2018-Jun-11 07:00N 38°59' E 001°32'0 0.0
2018-Jun-09 17:16N 38°59' E 001°32'1 5.4
2018-Jun-09 17:00N 38°58' E 001°32'1 2.5
2018-Jun-09 16:28N 38°59' E 001°32'2 4.1
2018-Jun-09 15:59N 38°57' E 001°31'3 2.2
2018-Jun-09 14:41N 38°59' E 001°34'1 6.3
2018-Jun-09 14:28N 38°59' E 001°32'2 3.2
2018-Jun-09 13:55N 38°59' E 001°34'2 4.2
2018-Jun-09 13:30N 38°59' E 001°32'  
Track history (hours):
 
Tides and Currents Weather Stations Pressure Air Temp Water Temp Dewpoint Dewpoint Depression Visibility Wind Speed Wind Dir Waves Ship Positions

Santa Eulalia

Last reported at 2018-Jun-19 12:56 UTC. Time now 2018-Jun-19 14:08 UTC.
Position N 38°56' E 001°30'.

Length 18 m.

Type: Passenger vessel. MMSI: 224005530.

Date/timePositionNaut miles runAvg speedWind from/ knotsBaromVisibWave heightAir tempDewpointWater temp
2018-Jun-19 12:56N 38°56' E 001°30'3 7.3
2018-Jun-19 12:28N 38°55' E 001°26'0 0.0
2018-Jun-19 11:23N 38°55' E 001°26'4 3.0
2018-Jun-19 09:58N 38°56' E 001°31'4 8.3
2018-Jun-19 09:27N 38°55' E 001°26'2 0.1
2018-Jun-18 15:49N 38°55' E 001°29'1 0.1
2018-Jun-18 09:44N 38°54' E 001°28'2 4.6
2018-Jun-18 09:24N 38°55' E 001°26'  
2018-Jun-14 15:01N 38°56' E 001°31'110.4
2018-Jun-14 14:55N 38°56' E 001°30'3 7.0
2018-Jun-14 14:28N 38°55' E 001°26'4 7.3
2018-Jun-14 13:55N 38°56' E 001°31'3 6.8
2018-Jun-14 13:29N 38°59' E 001°32'2 1.0
2018-Jun-14 11:47N 38°59' E 001°34'2 6.3
2018-Jun-14 11:30N 38°59' E 001°32'5 6.7
2018-Jun-14 10:49N 38°55' E 001°29'2 7.6
2018-Jun-14 10:30N 38°55' E 001°26'4 7.1
2018-Jun-14 09:57N 38°56' E 001°31'3 6.2
2018-Jun-14 09:28N 38°59' E 001°32'2 3.2
2018-Jun-14 08:52N 38°59' E 001°35'2 4.8
2018-Jun-14 08:28N 38°59' E 001°32'2 2.7
2018-Jun-14 07:53N 38°57' E 001°32'2 3.9
2018-Jun-14 07:30N 38°59' E 001°32'1 1.1
2018-Jun-14 07:00N 38°59' E 001°33'0 0.0
2018-Jun-13 17:13N 38°59' E 001°32'0 1.0
2018-Jun-13 17:00N 38°59' E 001°32'0 0.1
2018-Jun-13 16:29N 38°59' E 001°32'2 2.6
2018-Jun-13 15:46N 38°59' E 001°35'2 6.1
2018-Jun-13 15:28N 38°59' E 001°32'5 7.9
2018-Jun-13 14:47N 38°55' E 001°28'3 3.7
2018-Jun-13 13:50N 38°57' E 001°32'2 7.0
2018-Jun-13 13:30N 38°59' E 001°32'2 1.2
2018-Jun-13 11:44N 38°59' E 001°35'2 6.9
2018-Jun-13 11:26N 38°59' E 001°32'6 8.3
2018-Jun-13 10:41N 38°54' E 001°27'0 1.8
2018-Jun-13 10:25N 38°55' E 001°26'5 9.5
2018-Jun-13 09:55N 38°57' E 001°32'2 5.2
2018-Jun-13 09:28N 38°59' E 001°32'2 2.4
2018-Jun-13 08:42N 38°59' E 001°35'2 7.6
2018-Jun-13 08:28N 38°59' E 001°32'2 3.6
2018-Jun-13 07:56N 38°57' E 001°31'2 4.3
2018-Jun-13 07:30N 38°59' E 001°32'1 2.6
2018-Jun-13 06:59N 38°60' E 001°34'1 0.1
2018-Jun-12 18:11N 38°59' E 001°32'2 1.3
2018-Jun-12 16:54N 38°59' E 001°35'2 4.8
2018-Jun-12 16:30N 38°59' E 001°32'2 2.7
2018-Jun-12 15:48N 38°59' E 001°35'2 5.5
2018-Jun-12 15:27N 38°59' E 001°32'2 1.5
2018-Jun-12 13:50N 38°57' E 001°32'2 7.0
2018-Jun-12 13:30N 38°59' E 001°32'2 1.0
2018-Jun-12 11:48N 38°59' E 001°34'2 6.1
2018-Jun-12 11:30N 38°58' E 001°32'1 0.9
2018-Jun-12 09:52N 38°57' E 001°32'2 5.5
2018-Jun-12 09:29N 38°59' E 001°32'1 1.8
2018-Jun-12 08:47N 38°59' E 001°34'1 4.3
2018-Jun-12 08:29N 38°59' E 001°32'2 1.2
2018-Jun-12 06:52N 38°59' E 001°35'2 0.1
2018-Jun-11 17:21N 38°59' E 001°32'2 4.6
2018-Jun-11 17:00N 38°57' E 001°32'2 3.2
2018-Jun-11 16:30N 38°59' E 001°33'2 2.1
2018-Jun-11 15:45N 38°59' E 001°35'2 7.8
2018-Jun-11 15:30N 38°59' E 001°32'4 6.4
2018-Jun-11 14:57N 38°56' E 001°31'4 8.1
2018-Jun-11 14:30N 38°55' E 001°26'5 7.3
2018-Jun-11 13:50N 38°57' E 001°32'2 5.9
2018-Jun-11 13:28N 38°59' E 001°32'2 1.3
2018-Jun-11 11:53N 38°59' E 001°35'2 5.5
2018-Jun-11 11:30N 38°59' E 001°32'5 3.8
2018-Jun-11 10:09N 38°55' E 001°28'310.1
2018-Jun-11 09:49N 38°57' E 001°31'2 5.1
2018-Jun-11 09:27N 38°59' E 001°32'2 3.0
2018-Jun-11 08:50N 38°59' E 001°35'2 4.9
2018-Jun-11 08:28N 38°59' E 001°32'2 2.5
2018-Jun-11 07:47N 38°57' E 001°32'2 5.8
2018-Jun-11 07:30N 38°59' E 001°32'0 0.4
2018-Jun-11 07:00N 38°59' E 001°32'0 0.0
2018-Jun-09 17:16N 38°59' E 001°32'1 5.4
2018-Jun-09 17:00N 38°58' E 001°32'1 2.5
2018-Jun-09 16:28N 38°59' E 001°32'2 4.1
2018-Jun-09 15:59N 38°57' E 001°31'3 2.2
2018-Jun-09 14:41N 38°59' E 001°34'1 6.3
2018-Jun-09 14:28N 38°59' E 001°32'2 3.2
2018-Jun-09 13:55N 38°59' E 001°34'2 4.2
2018-Jun-09 13:30N 38°59' E 001°32'  

Dump ship's entire track history